Latest Weather Observations for Edinburgh

IDS60901

Issued at 9:25 am CDT Wednesday 26 November 2014 (issued every 10 minutes, with the page automatically refreshed every 10 minutes)

About weather observations | Map of Adelaide area stations | Latest observations for Adelaide area | Other Formats
Station Details ID: 023083 Name: EDINBURGH RAAF Lat: -34.71 Lon: 138.62 Height: 16.54 m
Data from the previous 72 hours. | See also: Recent months at Edinburgh
Date/Time
CDT
Tmp

°C
App
Tmp
°C
Dew
Point
°C
Rel
Hum
%
Delta-T

°C
Wind Press
QNH
hPa
Press
MSL
hPa
Rain
since
9 am
mm
Dir
 
Spd
km/h
Gust
km/h
Spd
kts
Gust
kts
26/09:00am 17.4 14.7 7.5 52 5.0 ESE 11 17 6 9 1024.1 1024.0 0.0
26/08:30am 16.6 13.6 7.5 55 4.5 ESE 13 17 7 9 1023.9 1023.8 0.0
26/08:00am 15.4 13.6 7.9 61 3.8 SE 7 11 4 6 1023.6 1023.5 0.0
26/07:30am 13.9 12.0 7.7 66 3.0 SSE 7 9 4 5 1023.2 1023.1 0.0
26/07:00am 11.6 11.2 8.3 80 1.6 CALM 0 0 0 0 1023.0 1022.9 0.0
26/06:30am 9.9 9.3 7.5 85 1.1 CALM 0 0 0 0 1022.8 1022.7 0.0
26/06:00am 9.7 7.7 7.3 85 1.1 NNE 7 9 4 5 1022.5 1022.4 0.0
26/05:30am 9.2 7.2 7.0 86 1.0 NNE 7 9 4 5 1022.3 1022.2 0.0
26/05:00am 10.2 8.5 7.6 84 1.2 NE 6 7 3 4 1022.0 1021.9 0.0
26/04:30am 9.8 7.9 6.9 82 1.4 NE 6 9 3 5 1021.9 1021.8 0.0
26/04:00am 10.0 9.4 7.3 83 1.3 CALM 0 0 0 0 1021.9 1021.8 0.0
26/03:30am 10.0 9.0 7.3 83 1.3 N 2 6 1 3 1021.9 1021.8 0.0
26/03:00am 10.3 8.8 7.0 80 1.6 N 4 6 2 3 1022.0 1021.9 0.0
26/02:30am 10.3 9.2 7.0 80 1.6 N 2 9 1 5 1022.1 1022.0 0.0
26/02:00am 12.1 11.0 7.0 71 2.4 SSE 2 7 1 4 1022.1 1022.0 0.0
26/01:30am 13.5 11.9 7.9 69 2.8 S 6 9 3 5 1022.2 1022.1 0.0
26/01:00am 13.6 12.0 7.8 68 2.9 S 6 7 3 4 1022.5 1022.4 0.0
26/12:30am 13.8 12.2 7.8 67 3.0 SSE 6 7 3 4 1022.7 1022.6 0.0
26/12:00am 14.1 12.3 7.9 66 3.1 SSE 7 11 4 6 1022.9 1022.8 0.0
 
Date/Time
CDT
Tmp

°C
App
Tmp
°C
Dew
Point
°C
Rel
Hum
%
Delta-T

°C
Wind Press
QNH
hPa
Press
MSL
hPa
Rain
since
9 am
mm
Dir
 
Spd
km/h
Gust
km/h
Spd
kts
Gust
kts
25/11:30pm 14.4 12.6 7.9 65 3.2 SSE 7 9 4 5 1023.1 1023.0 0.0
25/11:00pm 14.8 12.2 7.8 63 3.5 S 11 13 6 7 1023.1 1023.0 0.0
25/10:30pm 15.4 12.4 7.9 61 3.7 SE 13 17 7 9 1023.2 1023.1 0.0
25/10:00pm 15.9 12.6 7.9 59 4.0 SSE 15 20 8 11 1023.2 1023.1 0.0
25/09:30pm 16.5 13.3 8.5 59 4.1 SE 15 22 8 12 1022.9 1022.8 0.0
25/09:00pm 16.4 13.2 8.6 60 4.0 SSW 15 20 8 11 1022.6 1022.5 0.0
25/08:30pm 16.6 12.9 7.8 56 4.4 S 17 20 9 11 1022.6 1022.5 0.0
25/08:00pm 17.3 12.9 6.5 49 5.3 S 19 24 10 13 1022.4 1022.3 0.0
25/07:30pm 18.0 13.3 5.9 45 5.9 S 20 26 11 14 1022.0 1021.9 0.0
25/07:00pm 19.0 13.7 6.8 45 6.1 S 24 30 13 16 1021.8 1021.7 0.0
25/06:30pm 19.3 13.6 6.8 44 6.3 S 26 33 14 18 1021.5 1021.4 0.0
25/06:00pm 20.2 14.1 3.0 32 8.0 S 24 30 13 16 1021.5 1021.4 0.0
25/05:30pm 20.5 14.5 3.3 32 8.1 SSW 24 32 13 17 1021.6 1021.5 0.0
25/05:00pm 21.1 15.3 4.2 33 8.2 SSW 24 44 13 24 1021.5 1021.4 0.0
25/04:30pm 20.7 14.8 3.9 33 8.0 SSW 24 33 13 18 1021.8 1021.7 0.0
25/04:00pm 21.2 15.8 4.7 34 8.1 SW 22 26 12 14 1021.9 1021.8 0.0
25/03:30pm 20.6 14.4 4.2 34 7.9 SSW 26 30 14 16 1022.1 1022.0 0.0
25/03:00pm 21.2 15.8 4.3 33 8.2 S 22 33 12 18 1022.2 1022.1 0.0
25/02:30pm 20.9 15.9 4.5 34 7.9 WSW 20 28 11 15 1022.4 1022.3 0.0
25/02:00pm 20.4 14.3 2.7 31 8.3 SW 24 32 13 17 1022.6 1022.5 0.0
25/01:30pm 20.1 14.2 3.8 34 7.7 SSW 24 35 13 19 1022.8 1022.7 0.0
25/01:00pm 20.0 14.5 6.0 40 7.0 SW 24 33 13 18 1023.0 1022.9 0.0
25/12:30pm 18.5 13.7 7.3 48 5.6 SSW 22 32 12 17 1023.2 1023.1 0.0
25/12:00pm 17.9 14.0 7.3 50 5.3 SSW 17 24 9 13 1023.3 1023.2 0.0
25/11:30am 18.1 14.7 7.5 50 5.3 S 15 20 8 11 1023.4 1023.3 0.0
25/11:00am 17.5 14.3 6.7 49 5.4 S 13 20 7 11 1023.5 1023.4 0.0
25/10:30am 17.6 15.8 7.1 50 5.2 SW 6 15 3 8 1023.7 1023.6 0.0
25/10:00am 16.4 14.4 7.1 54 4.6 NW 7 13 4 7 1023.7 1023.6 0.0
25/09:30am 15.9 14.1 7.9 59 4.0 N 7 11 4 6 1023.7 1023.6 0.0
25/09:00am 15.3 13.5 7.8 61 3.7 NNE 7 9 4 5 1023.5 1023.4 0.0
25/08:30am 14.3 11.6 7.4 63 3.4 NE 11 13 6 7 1023.4 1023.3 0.0
25/08:00am 13.5 10.9 7.9 69 2.8 NE 11 15 6 8 1023.1 1023.0 0.0
25/07:30am 12.6 10.1 8.1 74 2.2 ENE 11 15 6 8 1022.7 1022.6 0.0
25/07:00am 10.7 8.0 7.4 80 1.6 NE 11 13 6 7 1022.4 1022.3 0.0
25/06:30am 9.8 7.8 6.9 82 1.4 NE 7 11 4 6 1022.1 1022.0 0.0
25/06:00am 9.5 7.0 6.6 82 1.3 NE 9 11 5 6 1021.6 1021.5 0.0
25/05:30am 9.7 7.2 6.6 81 1.4 NE 9 11 5 6 1021.3 1021.2 0.0
25/05:00am 9.8 7.0 6.9 82 1.4 NE 11 15 6 8 1020.9 1020.8 0.0
25/04:30am 9.3 7.1 6.2 81 1.4 NNE 7 9 4 5 1020.6 1020.5 0.0
25/04:00am 10.1 7.6 6.6 79 1.6 NE 9 11 5 6 1020.3 1020.2 0.0
25/03:30am 10.2 8.0 6.2 76 1.9 NNE 7 9 4 5 1020.3 1020.2 0.0
25/03:00am 12.9 11.4 6.7 66 3.0 SE 4 7 2 4 1020.2 1020.1 0.0
25/02:30am 13.3 11.2 6.6 64 3.2 SSE 7 9 4 5 1020.2 1020.1 0.0
25/02:00am 13.7 11.6 6.8 63 3.3 SE 7 9 4 5 1020.1 1020.0 0.0
25/01:30am 13.7 12.2 6.6 62 3.4 SE 4 6 2 3 1020.3 1020.2 0.0
25/01:00am 13.8 11.7 6.7 62 3.4 SSE 7 11 4 6 1020.2 1020.1 0.0
25/12:30am 14.1 11.6 6.7 61 3.6 SSE 9 13 5 7 1020.1 1020.0 0.0
25/12:00am 14.4 11.9 6.5 59 3.8 S 9 15 5 8 1020.1 1020.0 0.0
 
Date/Time
CDT
Tmp

°C
App
Tmp
°C
Dew
Point
°C
Rel
Hum
%
Delta-T

°C
Wind Press
QNH
hPa
Press
MSL
hPa
Rain
since
9 am
mm
Dir
 
Spd
km/h
Gust
km/h
Spd
kts
Gust
kts
24/11:30pm 14.7 11.8 6.5 58 4.0 S 11 17 6 9 1020.0 1019.9 0.0
24/11:00pm 15.1 11.9 6.7 57 4.1 S 13 20 7 11 1019.8 1019.7 0.0
24/10:30pm 15.7 11.1 6.7 55 4.4 S 20 32 11 17 1019.3 1019.2 0.0
24/10:00pm 16.3 11.2 7.5 56 4.4 SSW 24 43 13 23 1019.0 1018.9 0.0
24/09:30pm 16.6 11.5 7.5 55 4.5 SSW 24 30 13 16 1018.5 1018.4 0.0
24/09:00pm 16.4 10.4 8.6 60 4.0 SSW 30 39 16 21 1018.2 1018.1 0.0
24/08:30pm 16.6 10.1 8.8 60 4.0 SSW 33 41 18 22 1017.9 1017.8 0.0
24/08:00pm 16.8 10.5 8.8 59 4.1 SSW 32 41 17 22 1017.5 1017.4 0.0
24/07:30pm 17.4 9.9 9.6 60 4.1 SW 39 48 21 26 1017.0 1016.9 0.0
24/07:00pm 18.4 11.8 8.4 52 5.2 SW 33 46 18 25 1016.6 1016.5 0.0
24/06:30pm 19.1 11.5 7.5 47 5.9 SW 37 44 20 24 1016.1 1016.0 0.0
24/06:00pm 19.5 12.0 7.9 47 6.0 SW 37 46 20 25 1016.0 1015.9 0.0
24/05:30pm 19.6 12.1 8.0 47 6.0 SW 37 46 20 25 1015.8 1015.7 0.0
24/05:00pm 20.3 11.9 7.3 43 6.6 SW 41 50 22 27 1015.4 1015.3 0.0
24/04:30pm 20.6 12.1 6.9 41 7.0 SSW 41 52 22 28 1015.0 1014.9 0.0
24/04:00pm 20.8 13.5 8.8 46 6.3 SW 37 48 20 26 1014.8 1014.7 0.0
24/03:30pm 21.5 14.7 9.4 46 6.5 SW 35 48 19 26 1014.8 1014.7 0.0
24/03:00pm 20.5 13.4 9.4 49 5.9 SSW 37 48 20 26 1014.8 1014.7 0.0
24/02:30pm 21.4 15.2 11.4 53 5.5 SW 35 44 19 24 1014.6 1014.5 0.0
24/02:00pm 20.5 14.7 11.4 56 5.0 SW 33 41 18 22 1014.5 1014.4 0.0
24/01:30pm 20.6 14.8 10.7 53 5.4 SSW 32 41 17 22 1014.3 1014.2 0.0
24/01:00pm 20.6 15.1 12.6 60 4.5 SW 33 44 18 24 1014.1 1014.0 0.0
24/12:30pm 21.8 16.0 11.5 52 5.7 SW 33 41 18 22 1014.0 1013.9 0.0
24/12:00pm 21.4 16.6 11.7 54 5.4 SW 28 39 15 21 1014.0 1013.9 0.0
24/11:30am 21.4 15.1 11.1 52 5.7 WSW 35 46 19 25 1013.8 1013.7 0.0
24/11:00am 21.2 15.4 11.5 54 5.4 SW 33 44 18 24 1013.4 1013.3 0.0
24/10:30am 22.3 16.4 10.5 47 6.5 SW 32 41 17 22 1012.9 1012.8 0.0
24/10:00am 21.9 16.5 9.4 45 6.7 S 28 35 15 19 1012.8 1012.7 0.0
24/09:30am 21.0 15.2 9.6 48 6.1 SSW 30 37 16 20 1012.7 1012.6 0.0
24/09:00am 20.2 15.3 10.0 52 5.5 SSW 26 35 14 19 1012.0 1011.9 0.0
24/08:30am 20.1 15.8 10.8 55 5.1 SSW 24 33 13 18 1011.3 1011.2 0.0
24/08:00am 19.7 15.6 11.5 59 4.5 S 24 33 13 18 1010.5 1010.4 0.0
24/07:30am 19.1 14.8 11.9 63 4.0 SSW 26 35 14 19 1009.6 1009.5 0.0
24/07:00am 19.0 16.2 12.5 66 3.6 SW 19 24 10 13 1009.0 1008.9 0.0
24/06:30am 19.1 18.5 14.6 75 2.6 WNW 11 13 6 7 1008.1 1008.1 0.0
24/06:00am 18.8 19.0 14.1 74 2.7 WNW 6 7 3 4 1007.6 1007.6 0.0
24/05:30am 19.9 19.9 13.6 67 3.6 S 6 7 3 4 1006.8 1006.8 0.0
24/05:00am 20.0 18.8 14.1 69 3.4 SSW 13 17 7 9 1006.5 1006.5 0.0
24/04:30am 20.9 18.8 14.8 68 3.6 SW 19 24 10 13 1006.1 1006.1 0.0
24/04:00am 22.6 22.2 12.3 52 5.8 NNE 6 9 3 5 1005.3 1005.3 0.0
24/03:30am 23.5 21.8 12.5 50 6.3 NNE 13 15 7 8 1005.2 1005.2 0.0
24/03:00am 23.9 21.8 12.5 49 6.5 NE 15 19 8 10 1005.6 1005.6 0.0
24/02:30am 24.1 21.6 12.4 48 6.7 NE 17 22 9 12 1006.1 1006.1 0.0
24/02:00am 24.2 20.6 11.9 46 7.0 NNE 22 32 12 17 1006.6 1006.6 0.0
24/01:30am 24.7 21.1 12.0 45 7.3 NE 22 32 12 17 1007.1 1007.1 0.0
24/01:00am 24.2 21.8 11.5 45 7.2 ENE 15 20 8 11 1007.1 1007.1 0.0
24/12:30am 24.1 20.9 11.4 45 7.2 E 19 26 10 14 1007.3 1007.3 0.0
24/12:00am 24.2 21.1 11.5 45 7.2 E 19 24 10 13 1007.9 1007.9 0.0
 
Date/Time
CDT
Tmp

°C
App
Tmp
°C
Dew
Point
°C
Rel
Hum
%
Delta-T

°C
Wind Press
QNH
hPa
Press
MSL
hPa
Rain
since
9 am
mm
Dir
 
Spd
km/h
Gust
km/h
Spd
kts
Gust
kts
23/11:30pm 24.0 22.1 11.7 46 7.0 NE 13 19 7 10 1008.2 1008.2 0.0
23/11:00pm 25.0 22.5 11.2 42 7.8 ENE 15 24 8 13 1008.0 1008.0 0.0
23/10:30pm 25.5 24.0 10.5 39 8.4 E 9 19 5 10 1008.4 1008.4 0.0
23/10:00pm 25.8 23.6 10.8 39 8.4 ENE 13 19 7 10 1008.4 1008.4 0.0
23/09:30pm 25.8 24.8 10.4 38 8.6 ESE 6 9 3 5 1008.5 1008.5 0.0
23/09:00pm 26.3 25.2 10.5 37 8.9 SE 7 15 4 8 1008.2 1008.2 0.0
23/08:30pm 26.9 25.3 10.2 35 9.4 ESE 9 15 5 8 1007.8 1007.8 0.0
23/08:00pm 27.8 24.3 10.1 33 9.9 E 19 24 10 13 1007.5 1007.5 0.0
23/07:30pm 28.8 25.2 10.0 31 10.6 ESE 19 32 10 17 1007.3 1007.3 0.0
23/07:00pm 29.1 26.6 8.2 27 11.4 ESE 11 19 6 10 1007.3 1007.3 0.0
23/06:30pm 29.0 26.2 7.0 25 11.8 SE 11 19 6 10 1007.9 1007.9 0.0
23/06:00pm 28.4 25.3 7.1 26 11.4 SSE 13 19 7 10 1008.4 1008.4 0.0
23/05:30pm 27.4 24.8 7.8 29 10.6 SSE 11 15 6 8 1009.2 1009.1 0.0
23/05:00pm 27.2 24.6 7.6 29 10.5 S 11 15 6 8 1009.5 1009.4 0.0
23/04:30pm 26.4 23.1 6.4 28 10.5 S 13 20 7 11 1009.9 1009.8 0.0
23/04:00pm 26.4 23.3 7.4 30 10.1 S 13 17 7 9 1010.8 1010.7 0.0
23/03:30pm 25.7 21.7 8.2 33 9.4 SSW 19 20 10 11 1011.2 1011.1 0.0
23/03:00pm 24.8 21.0 9.1 37 8.5 WSW 19 24 10 13 1012.4 1012.3 0.0
23/02:30pm 25.4 21.1 10.8 40 8.2 WSW 24 35 13 19 1012.2 1012.1 0.0
23/02:00pm 25.7 22.8 11.1 40 8.2 WSW 17 22 9 12 1011.5 1011.4 0.0
23/01:30pm 25.8 23.3 12.3 43 7.8 SW 17 30 9 16 1011.8 1011.7 0.0
23/01:00pm 25.3 23.1 13.2 47 7.1 SW 17 24 9 13 1012.0 1011.9 0.0
23/12:30pm 24.8 22.9 14.3 52 6.2 SW 17 22 9 12 1012.4 1012.3 0.0
23/12:00pm 24.3 22.1 14.4 54 5.9 SW 19 24 10 13 1012.4 1012.3 0.0
23/11:30am 24.6 23.4 14.1 52 6.2 SSW 13 20 7 11 1012.2 1012.1 0.0
23/11:00am 24.1 23.4 11.4 45 7.1 WSW 6 11 3 6 1012.1 1012.0 0.0
23/10:30am 23.3 22.9 12.3 50 6.3 W 6 15 3 8 1012.0 1011.9 0.0
23/10:00am 22.1 21.7 12.9 56 5.3 N 7 11 4 6 1011.9 1011.8 0.0
23/09:30am 20.6 19.9 14.3 67 3.7 NE 11 15 6 8 1012.0 1011.9 0.0

Latest Capital City Observations: Canberra | Sydney | Melbourne | Brisbane | Adelaide | Perth | Hobart | Darwin

Other Formats:

Comma delimited format used in spreadsheet applications
http://www.bom.gov.au/fwo/IDS60901/IDS60901.95676.axf

JavaScript Object Notation format (JSON) in row-major order
http://www.bom.gov.au/fwo/IDS60901/IDS60901.95676.json